Time;durP1;ratioP1;P1;durP2;ratioP2;P2;SDS_P1;SDS_P2;PMS_P1;PMS_P2;Temp;Humidity;BMP_temperature;BMP_pressure;BME280_temperature;BME280_humidity;BME280_pressure;Samples;Min_cycle;Max_cycle;Signal;HPM_P1;HPM_P2
2022/04/15 00:00:38;;;;;;;17.27;9.07;;;6.40;99.90;;;;;;5062715;28;20025;-66
2022/04/15 00:03:07;;;;;;;20.00;9.13;;;6.40;99.90;;;;;;5064910;28;20033;-65
2022/04/15 00:05:36;;;;;;;16.42;7.60;;;6.40;99.90;;;;;;5063941;28;20025;-66
2022/04/15 00:08:10;;;;;;;20.10;8.50;;;6.30;99.90;;;;;;5065054;28;20030;-66
2022/04/15 00:10:37;;;;;;;18.00;9.20;;;6.30;99.90;;;;;;5063950;28;20052;-66
2022/04/15 00:13:06;;;;;;;15.52;8.70;;;6.30;99.90;;;;;;5064188;28;20025;-66
2022/04/15 00:15:33;;;;;;;17.48;8.75;;;6.30;99.90;;;;;;5064401;28;20025;-65
2022/04/15 00:17:59;;;;;;;21.10;9.18;;;6.30;99.90;;;;;;5063077;28;20108;-65
2022/04/15 00:20:27;;;;;;;16.85;9.10;;;6.30;99.90;;;;;;5064799;28;20056;-66
2022/04/15 00:22:53;;;;;;;20.52;9.30;;;6.20;99.90;;;;;;5063393;28;20025;-65
2022/04/15 00:25:20;;;;;;;18.73;8.60;;;6.20;99.90;;;;;;5064828;28;20048;-66
2022/04/15 00:27:45;;;;;;;15.27;8.80;;;6.20;99.90;;;;;;5062312;28;20055;-67
2022/04/15 00:30:12;;;;;;;17.17;8.57;;;6.20;99.90;;;;;;5064222;28;20025;-65
2022/04/15 00:32:38;;;;;;;18.33;8.48;;;6.10;99.90;;;;;;5064028;28;20145;-65
2022/04/15 00:35:04;;;;;;;14.95;8.43;;;6.10;99.90;;;;;;5063337;28;20032;-65
2022/04/15 00:37:31;;;;;;;19.25;8.38;;;6.10;99.90;;;;;;5046080;28;20093;-66
2022/04/15 00:39:57;;;;;;;16.63;8.77;;;6.10;99.90;;;;;;5063191;28;20043;-65
2022/04/15 00:42:24;;;;;;;21.05;9.93;;;6.10;99.90;;;;;;5062661;28;20017;-66
2022/04/15 00:44:57;;;;;;;15.48;8.80;;;6.10;99.90;;;;;;5061746;28;20105;-65
2022/04/15 00:47:45;;;;;;;20.52;9.43;;;6.10;99.90;;;;;;5063584;28;20442;-66
2022/04/15 00:50:11;;;;;;;18.92;9.13;;;6.00;99.90;;;;;;5062636;28;20032;-66
2022/04/15 00:52:40;;;;;;;14.57;8.77;;;6.00;99.90;;;;;;5061273;28;20040;-66
2022/04/15 00:55:07;;;;;;;16.98;8.32;;;5.90;99.90;;;;;;5062648;28;20017;-65
2022/04/15 00:57:36;;;;;;;18.40;9.63;;;5.90;99.90;;;;;;5061422;28;20052;-65
2022/04/15 01:00:05;;;;;;;15.48;8.90;;;5.80;99.90;;;;;;5063927;28;20082;-66
2022/04/15 01:02:33;;;;;;;16.08;8.38;;;5.70;99.90;;;;;;5061906;28;20059;-66
2022/04/15 01:05:00;;;;;;;18.55;8.98;;;5.70;99.90;;;;;;5062909;28;20029;-66
2022/04/15 01:07:29;;;;;;;13.77;7.70;;;5.70;99.90;;;;;;5063811;28;20025;-66
2022/04/15 01:09:55;;;;;;;17.73;9.10;;;5.60;99.90;;;;;;5062027;28;20025;-66
2022/04/15 01:12:29;;;;;;;19.80;9.65;;;5.60;99.90;;;;;;5063484;28;20064;-66
2022/04/15 01:14:59;;;;;;;13.35;8.02;;;5.60;99.90;;;;;;5062629;28;20025;-66
2022/04/15 01:17:27;;;;;;;16.20;7.75;;;5.70;99.90;;;;;;5063045;28;20029;-66
2022/04/15 01:19:53;;;;;;;20.63;9.68;;;5.80;99.90;;;;;;5063199;28;20037;-66
2022/04/15 01:22:23;;;;;;;19.80;8.75;;;5.80;99.90;;;;;;5062132;28;20117;-65
2022/04/15 01:24:49;;;;;;;16.85;9.48;;;5.90;99.90;;;;;;5062123;28;20087;-66
2022/04/15 01:27:28;;;;;;;18.80;9.93;;;6.00;99.90;;;;;;5062138;28;20404;-65
2022/04/15 01:29:53;;;;;;;17.25;9.40;;;6.10;99.90;;;;;;5061943;28;20025;-66
2022/04/15 01:32:19;;;;;;;17.60;9.90;;;6.20;99.90;;;;;;5061249;28;20083;-66
2022/04/15 01:34:45;;;;;;;17.55;9.10;;;6.20;99.90;;;;;;5062347;28;20029;-66
2022/04/15 01:37:14;;;;;;;16.42;8.80;;;6.30;99.90;;;;;;5061578;28;20032;-66
2022/04/15 01:39:40;;;;;;;14.23;8.02;;;6.30;99.90;;;;;;5062126;28;20388;-66
2022/04/15 01:42:10;;;;;;;15.65;8.13;;;6.30;99.90;;;;;;5063498;28;20021;-66
2022/04/15 01:44:36;;;;;;;14.10;7.55;;;6.30;99.90;;;;;;5060510;28;20017;-65
2022/04/15 01:47:01;;;;;;;12.80;7.43;;;6.30;99.90;;;;;;5063050;28;20028;-65
2022/04/15 01:49:27;;;;;;;12.45;7.55;;;6.30;99.90;;;;;;5061093;28;20410;-66
2022/04/15 01:51:52;;;;;;;13.65;7.95;;;6.40;99.90;;;;;;5062417;28;20025;-65
2022/04/15 01:54:18;;;;;;;14.10;7.72;;;6.40;99.90;;;;;;5044917;28;20026;-66
2022/04/15 01:56:44;;;;;;;17.35;8.98;;;6.40;99.90;;;;;;5061905;28;20047;-66
2022/04/15 01:59:09;;;;;;;15.52;8.13;;;6.50;99.90;;;;;;5063085;28;20467;-66
2022/04/15 02:01:36;;;;;;;16.42;8.75;;;6.50;99.90;;;;;;5043469;28;20021;-66
2022/04/15 02:04:02;;;;;;;15.02;8.50;;;6.60;99.90;;;;;;5062970;28;20025;-66
2022/04/15 02:06:28;;;;;;;13.75;8.40;;;6.60;99.90;;;;;;5060456;28;20029;-65
2022/04/15 02:08:53;;;;;;;14.35;8.30;;;6.60;99.90;;;;;;5062107;28;20029;-66
2022/04/15 02:11:19;;;;;;;17.05;9.18;;;6.70;99.90;;;;;;5062504;28;20029;-65
2022/04/15 02:13:45;;;;;;;14.10;7.88;;;6.70;99.90;;;;;;5060806;28;20036;-66
2022/04/15 02:16:10;;;;;;;15.02;7.43;;;6.70;99.90;;;;;;5044541;28;20029;-66
2022/04/15 02:18:37;;;;;;;15.60;7.68;;;6.70;99.90;;;;;;5059491;28;20078;-66
2022/04/15 02:21:02;;;;;;;14.85;7.50;;;6.80;99.90;;;;;;5060456;28;20041;-66
2022/04/15 02:23:28;;;;;;;15.48;7.55;;;6.80;99.90;;;;;;5060122;28;20052;-65
2022/04/15 02:25:53;;;;;;;14.27;7.75;;;6.70;99.90;;;;;;5060722;28;20473;-65
2022/04/15 02:28:19;;;;;;;16.80;8.45;;;6.80;99.90;;;;;;5062394;28;20055;-65
2022/04/15 02:30:47;;;;;;;15.32;8.18;;;6.80;99.90;;;;;;5059996;28;20351;-66
2022/04/15 02:33:17;;;;;;;16.23;8.55;;;6.80;99.90;;;;;;5062164;28;20036;-66
2022/04/15 02:35:42;;;;;;;14.13;8.50;;;6.80;99.90;;;;;;5059454;28;20025;-65
2022/04/15 02:38:08;;;;;;;14.52;8.05;;;6.80;99.90;;;;;;5044201;28;20040;-66
2022/04/15 02:40:34;;;;;;;14.48;8.05;;;6.80;99.90;;;;;;5059530;28;20032;-66
2022/04/15 02:43:01;;;;;;;21.45;8.75;;;6.90;99.90;;;;;;5061151;28;20081;-66
2022/04/15 02:45:29;;;;;;;15.73;9.30;;;6.90;99.90;;;;;;5061999;28;20025;-67
2022/04/15 02:47:55;;;;;;;15.57;8.35;;;6.90;99.90;;;;;;5059384;28;20037;-65
2022/04/15 02:50:21;;;;;;;13.13;7.93;;;6.90;99.90;;;;;;5044080;28;20092;-66
2022/04/15 02:52:47;;;;;;;17.60;8.15;;;7.00;99.90;;;;;;5060593;28;20055;-65
2022/04/15 02:55:13;;;;;;;17.23;8.80;;;7.00;99.90;;;;;;5061906;28;20040;-66
2022/04/15 02:57:39;;;;;;;18.40;9.25;;;7.00;99.90;;;;;;5059474;28;20040;-66
2022/04/15 03:00:05;;;;;;;16.85;8.20;;;7.10;99.90;;;;;;5061429;28;20088;-65
2022/04/15 03:02:34;;;;;;;15.93;8.48;;;7.00;99.90;;;;;;5059754;28;20094;-65
2022/04/15 03:05:01;;;;;;;17.88;9.20;;;7.10;99.90;;;;;;5059074;28;20028;-66
2022/04/15 03:07:27;;;;;;;17.52;9.05;;;7.10;99.90;;;;;;5060295;28;20096;-66
2022/04/15 03:09:52;;;;;;;15.50;8.90;;;7.10;99.90;;;;;;5058882;28;20033;-66
2022/04/15 03:12:18;;;;;;;15.90;9.07;;;7.00;99.90;;;;;;5061342;28;20052;-66
2022/04/15 03:14:44;;;;;;;15.35;8.52;;;7.10;99.90;;;;;;5060477;28;20025;-66
2022/04/15 03:17:12;;;;;;;15.88;9.05;;;7.00;99.90;;;;;;5061407;28;20021;-66
2022/04/15 03:19:38;;;;;;;17.08;8.68;;;7.00;99.90;;;;;;5060712;28;20067;-66
2022/04/15 03:22:05;;;;;;;18.55;9.00;;;7.10;99.90;;;;;;5042317;28;20032;-66
2022/04/15 03:24:31;;;;;;;16.27;9.00;;;7.10;99.90;;;;;;5061293;28;20025;-68
2022/04/15 03:26:57;;;;;;;16.48;9.20;;;7.10;99.90;;;;;;5042020;28;20127;-66
2022/04/15 03:29:22;;;;;;;16.55;8.88;;;7.10;99.90;;;;;;5061330;28;20397;-66
2022/04/15 03:31:48;;;;;;;16.65;8.93;;;7.10;99.90;;;;;;5058552;28;20033;-66
2022/04/15 03:34:14;;;;;;;14.07;8.60;;;7.10;99.90;;;;;;5061275;28;20031;-66
2022/04/15 03:36:40;;;;;;;13.57;8.25;;;7.10;99.90;;;;;;5059083;28;20063;-66
2022/04/15 03:39:06;;;;;;;12.85;8.05;;;7.20;99.90;;;;;;5058763;28;20045;-66
2022/04/15 03:41:32;;;;;;;16.30;8.73;;;7.20;99.90;;;;;;5059636;28;20085;-65
2022/04/15 03:43:57;;;;;;;16.20;8.48;;;7.20;99.90;;;;;;5059501;28;20176;-66
2022/04/15 03:46:23;;;;;;;17.45;7.72;;;7.30;99.90;;;;;;5059899;28;20057;-66
2022/04/15 03:48:49;;;;;;;16.95;8.90;;;7.30;99.90;;;;;;5059738;28;20029;-65
2022/04/15 03:51:14;;;;;;;14.45;8.38;;;7.30;99.90;;;;;;5061223;28;20032;-66
2022/04/15 03:53:40;;;;;;;13.60;8.20;;;7.30;99.90;;;;;;5060475;28;20036;-66
2022/04/15 03:56:07;;;;;;;16.80;8.70;;;7.40;99.90;;;;;;5042311;28;20527;-66
2022/04/15 03:58:34;;;;;;;14.85;8.60;;;7.40;99.90;;;;;;5059481;28;20061;-67
2022/04/15 04:01:00;;;;;;;13.88;8.68;;;7.40;99.90;;;;;;5059665;28;20081;-67
2022/04/15 04:03:25;;;;;;;17.38;9.13;;;7.40;99.90;;;;;;5059864;28;20026;-67
2022/04/15 04:05:51;;;;;;;16.67;8.65;;;7.40;99.90;;;;;;5058163;28;20059;-67
2022/04/15 04:08:19;;;;;;;14.70;8.75;;;7.40;99.90;;;;;;5060919;28;20033;-68
2022/04/15 04:10:45;;;;;;;16.67;8.88;;;7.50;99.90;;;;;;5058799;28;20025;-67
2022/04/15 04:13:11;;;;;;;15.73;8.35;;;7.40;99.90;;;;;;5059750;28;20396;-66
2022/04/15 04:15:36;;;;;;;17.33;8.25;;;7.50;99.90;;;;;;5059341;28;20029;-66
2022/04/15 04:18:02;;;;;;;18.83;8.98;;;7.50;99.90;;;;;;5059407;28;20045;-66
2022/04/15 04:20:28;;;;;;;18.90;9.32;;;7.50;99.90;;;;;;5042803;28;20040;-66
2022/04/15 04:22:54;;;;;;;13.95;8.57;;;7.50;99.90;;;;;;5058089;28;20020;-66
2022/04/15 04:25:20;;;;;;;15.43;8.60;;;7.50;99.90;;;;;;5059697;28;20025;-66
2022/04/15 04:27:47;;;;;;;15.05;8.60;;;7.60;99.90;;;;;;5059754;28;20493;-66
2022/04/15 04:30:14;;;;;;;16.40;8.75;;;7.60;99.90;;;;;;5060422;28;20021;-65
2022/04/15 04:32:49;;;;;;;17.27;8.60;;;7.60;99.90;;;;;;5060437;28;20076;-66
2022/04/15 04:35:19;;;;;;;16.58;8.82;;;7.70;99.90;;;;;;5059538;28;20420;-66
2022/04/15 04:37:45;;;;;;;14.57;8.27;;;7.70;99.90;;;;;;5060853;28;20033;-66
2022/04/15 04:40:12;;;;;;;14.63;8.23;;;7.70;99.90;;;;;;5057924;28;20013;-66
2022/04/15 04:42:38;;;;;;;17.73;7.82;;;7.80;99.90;;;;;;5058923;28;20049;-66
2022/04/15 04:45:05;;;;;;;15.68;8.60;;;7.80;99.90;;;;;;5062803;28;20053;-66
2022/04/15 04:47:31;;;;;;;15.00;8.68;;;7.80;99.90;;;;;;5063552;28;20067;-66
2022/04/15 04:49:57;;;;;;;15.15;8.02;;;7.80;99.90;;;;;;5045898;28;20021;-66
2022/04/15 04:52:26;;;;;;;15.85;8.00;;;7.90;99.90;;;;;;5044763;28;20109;-65
2022/04/15 04:54:51;;;;;;;19.00;8.75;;;7.80;99.90;;;;;;5064180;28;20021;-66
2022/04/15 04:57:17;;;;;;;16.23;8.73;;;7.80;99.90;;;;;;5061228;28;20044;-66
2022/04/15 04:59:43;;;;;;;16.30;8.73;;;7.80;99.90;;;;;;5045986;28;20078;-65
2022/04/15 05:02:10;;;;;;;17.38;8.80;;;7.90;99.90;;;;;;5062973;28;20088;-66
2022/04/15 05:04:36;;;;;;;17.60;9.88;;;7.90;99.90;;;;;;5063124;28;20473;-66
2022/04/15 05:07:03;;;;;;;17.67;10.25;;;7.90;99.90;;;;;;5063580;28;20036;-66
2022/04/15 05:09:29;;;;;;;17.25;10.57;;;8.00;99.90;;;;;;5062411;28;20041;-66
2022/04/15 05:11:55;;;;;;;15.27;9.82;;;7.90;99.90;;;;;;5062454;28;20036;-66
2022/04/15 05:14:21;;;;;;;18.88;10.13;;;8.00;99.90;;;;;;5061968;28;20132;-66
2022/04/15 05:16:47;;;;;;;18.60;9.60;;;8.00;99.90;;;;;;5063900;28;20044;-66
2022/04/15 05:19:13;;;;;;;17.77;10.18;;;8.00;99.90;;;;;;5062738;28;20087;-66
2022/04/15 05:21:40;;;;;;;17.83;9.73;;;8.00;99.90;;;;;;5063146;28;20029;-66
2022/04/15 05:24:09;;;;;;;19.63;9.85;;;8.00;99.90;;;;;;5061965;28;20037;-66
2022/04/15 05:26:38;;;;;;;15.18;8.55;;;8.00;99.90;;;;;;5062289;28;20036;-66
2022/04/15 05:29:04;;;;;;;15.25;8.57;;;8.10;99.90;;;;;;5063540;28;20062;-66
2022/04/15 05:31:30;;;;;;;13.98;7.63;;;8.00;99.90;;;;;;5062055;28;20044;-66
2022/04/15 05:33:56;;;;;;;16.23;8.57;;;8.10;99.90;;;;;;5062023;28;20033;-67
2022/04/15 05:36:21;;;;;;;13.00;7.78;;;8.10;99.90;;;;;;5061110;28;20021;-66
2022/04/15 05:38:47;;;;;;;13.50;8.30;;;8.00;99.90;;;;;;5062580;28;20025;-66
2022/04/15 05:41:13;;;;;;;13.85;8.05;;;8.10;99.90;;;;;;5061512;28;20029;-66
2022/04/15 05:43:38;;;;;;;12.52;6.55;;;8.10;99.90;;;;;;5061312;28;20029;-66
2022/04/15 05:46:04;;;;;;;12.45;7.00;;;8.10;99.90;;;;;;5063157;28;20072;-67
2022/04/15 05:48:30;;;;;;;11.63;6.32;;;8.10;99.90;;;;;;5043952;28;20036;-66
2022/04/15 05:50:55;;;;;;;10.90;6.53;;;8.10;99.90;;;;;;5063105;28;20426;-66
2022/04/15 05:53:21;;;;;;;10.68;6.00;;;8.10;99.90;;;;;;5062018;28;20033;-67
2022/04/15 05:55:47;;;;;;;10.25;6.15;;;8.10;99.90;;;;;;5060089;28;20389;-66
2022/04/15 05:58:13;;;;;;;13.20;6.55;;;8.10;99.90;;;;;;5062639;28;20044;-66
2022/04/15 06:00:39;;;;;;;11.50;6.25;;;8.00;99.90;;;;;;5061746;28;20057;-66
2022/04/15 06:03:07;;;;;;;11.27;6.05;;;8.10;99.90;;;;;;5061437;28;20025;-66
2022/04/15 06:05:33;;;;;;;10.63;5.93;;;8.10;99.90;;;;;;5060080;28;20009;-66
2022/04/15 06:07:58;;;;;;;10.02;5.47;;;8.00;99.90;;;;;;5061483;28;20032;-66
2022/04/15 06:10:24;;;;;;;13.02;6.28;;;8.00;99.90;;;;;;5060050;28;20041;-66
2022/04/15 06:13:32;;;;;;;10.88;6.65;;;8.00;99.90;;;;;;5060537;28;20036;-66
2022/04/15 06:15:41;;;;;;;8.48;5.25;;;8.00;99.90;;;;;;5056803;28;20074;-66
2022/04/15 06:18:07;;;;;;;10.02;5.97;;;8.00;99.90;;;;;;5059282;28;20080;-66
2022/04/15 06:20:34;;;;;;;11.15;5.80;;;8.00;99.90;;;;;;5061301;28;20055;-66
2022/04/15 06:23:00;;;;;;;10.43;5.43;;;7.90;99.90;;;;;;5059813;28;20087;-66
2022/04/15 06:25:26;;;;;;;10.38;6.25;;;7.90;99.90;;;;;;5061068;28;20024;-66
2022/04/15 06:27:54;;;;;;;11.73;8.13;;;7.90;99.90;;;;;;5060183;28;20048;-65
2022/04/15 06:30:21;;;;;;;12.52;8.90;;;7.80;99.90;;;;;;5043847;28;20492;-66
2022/04/15 06:32:47;;;;;;;12.02;7.78;;;7.80;99.90;;;;;;5062171;28;20021;-66
2022/04/15 06:35:13;;;;;;;11.63;7.45;;;7.80;99.90;;;;;;5059475;28;20028;-66
2022/04/15 06:37:38;;;;;;;9.20;5.18;;;7.80;99.90;;;;;;5060783;28;20025;-66
2022/04/15 06:40:04;;;;;;;8.70;5.22;;;7.80;99.90;;;;;;5060769;28;20036;-66
2022/04/15 06:42:30;;;;;;;9.57;5.22;;;7.80;99.90;;;;;;5060278;28;20060;-66
2022/04/15 06:44:57;;;;;;;9.23;5.25;;;7.80;99.90;;;;;;5061191;28;20029;-66
2022/04/15 06:47:23;;;;;;;9.98;5.22;;;7.80;99.90;;;;;;5059889;28;20029;-66
2022/04/15 06:49:49;;;;;;;8.75;5.00;;;7.80;99.90;;;;;;5060495;28;20044;-66
2022/04/15 06:52:15;;;;;;;11.05;5.38;;;7.80;99.90;;;;;;5059236;28;20060;-66
2022/04/15 06:54:41;;;;;;;10.80;5.40;;;7.90;99.90;;;;;;5060669;28;20025;-65
2022/04/15 06:57:07;;;;;;;8.57;5.10;;;7.90;99.90;;;;;;5058988;28;20021;-65
2022/04/15 06:59:33;;;;;;;11.00;5.60;;;7.90;99.90;;;;;;5060356;28;20075;-66
2022/04/15 07:01:59;;;;;;;10.20;5.55;;;7.80;99.90;;;;;;5043004;28;20025;-67
2022/04/15 07:04:25;;;;;;;9.10;5.50;;;7.90;99.90;;;;;;5059562;28;20044;-66
2022/04/15 07:06:51;;;;;;;11.75;5.72;;;7.80;99.90;;;;;;5059477;28;20032;-66
2022/04/15 07:09:17;;;;;;;8.27;5.13;;;7.80;99.90;;;;;;5058855;28;20028;-66
2022/04/15 07:11:43;;;;;;;9.82;6.05;;;7.90;99.90;;;;;;5060167;28;20406;-66
2022/04/15 07:14:09;;;;;;;10.77;5.70;;;7.90;99.90;;;;;;5059699;28;20021;-66
2022/04/15 07:16:34;;;;;;;11.52;6.05;;;7.90;99.90;;;;;;5060366;28;20025;-66
2022/04/15 07:19:07;;;;;;;12.88;6.15;;;7.80;99.90;;;;;;5059978;28;20064;-66
2022/04/15 07:21:36;;;;;;;11.38;5.55;;;7.90;99.90;;;;;;5061774;28;20029;-66
2022/04/15 07:24:03;;;;;;;10.93;6.63;;;7.90;99.90;;;;;;5060503;28;20053;-67
2022/04/15 07:26:30;;;;;;;13.43;7.10;;;7.90;99.90;;;;;;5060038;28;20077;-66
2022/04/15 07:28:57;;;;;;;12.23;6.72;;;8.00;99.90;;;;;;5061689;28;20048;-66
2022/04/15 07:31:23;;;;;;;12.95;7.28;;;8.00;99.90;;;;;;5060290;28;20029;-66
2022/04/15 07:33:49;;;;;;;15.77;7.38;;;8.10;99.90;;;;;;5060448;28;20032;-66
2022/04/15 07:39:00;;;;;;;14.77;7.35;;;8.20;99.90;;;;;;5060630;28;20102;-66
2022/04/15 07:41:26;;;;;;;13.57;7.80;;;8.20;99.90;;;;;;5060780;28;20033;-66
2022/04/15 07:43:52;;;;;;;18.33;8.75;;;8.30;99.90;;;;;;5058114;28;20489;-66
2022/04/15 07:46:18;;;;;;;16.27;8.07;;;8.30;99.90;;;;;;5061488;28;20036;-66
2022/04/15 07:48:43;;;;;;;15.43;8.45;;;8.40;99.90;;;;;;5042729;28;20025;-66
2022/04/15 07:51:10;;;;;;;17.75;9.27;;;8.40;99.90;;;;;;5062113;28;20033;-66
2022/04/15 07:53:36;;;;;;;16.75;9.15;;;8.50;99.90;;;;;;5062156;28;20112;-66
2022/04/15 07:56:02;;;;;;;15.93;8.95;;;8.40;99.90;;;;;;5059526;28;20499;-66
2022/04/15 07:58:28;;;;;;;16.20;9.50;;;8.40;99.90;;;;;;5061403;28;20029;-66
2022/04/15 08:00:54;;;;;;;16.90;9.55;;;8.50;99.90;;;;;;5059738;28;20047;-66
2022/04/15 08:03:21;;;;;;;21.42;10.02;;;8.50;99.90;;;;;;5059942;28;20504;-67
2022/04/15 08:05:47;;;;;;;17.27;10.07;;;8.50;99.90;;;;;;5060673;28;20385;-66
2022/04/15 08:08:13;;;;;;;23.15;10.30;;;8.50;99.90;;;;;;5060645;28;20554;-66
2022/04/15 08:10:38;;;;;;;20.17;9.75;;;8.60;99.90;;;;;;5042248;28;20477;-66
2022/04/15 08:13:04;;;;;;;17.10;9.35;;;8.60;99.90;;;;;;5041765;28;20078;-66
2022/04/15 08:15:30;;;;;;;17.00;9.68;;;8.70;99.90;;;;;;5060862;28;20037;-66
2022/04/15 08:17:56;;;;;;;19.55;9.82;;;8.70;99.90;;;;;;5059123;28;20451;-65
2022/04/15 08:20:22;;;;;;;17.02;9.82;;;8.60;99.90;;;;;;5064786;28;20554;-66
2022/04/15 08:22:48;;;;;;;19.17;9.43;;;8.80;99.90;;;;;;5063208;28;20108;-66
2022/04/15 08:25:14;;;;;;;18.13;10.35;;;8.90;99.90;;;;;;5064898;28;20037;-66
2022/04/15 08:27:39;;;;;;;20.50;9.73;;;9.00;99.90;;;;;;5062414;28;20051;-66
2022/04/15 08:30:06;;;;;;;17.92;10.70;;;9.00;99.90;;;;;;5046067;28;20025;-67
2022/04/15 08:32:35;;;;;;;24.13;11.10;;;9.20;99.90;;;;;;5064493;28;20021;-66
2022/04/15 08:35:06;;;;;;;20.38;10.77;;;9.10;99.90;;;;;;5062015;28;20029;-66
2022/04/15 08:37:33;;;;;;;20.70;11.20;;;9.10;99.90;;;;;;5065105;28;20028;-65
2022/04/15 08:39:59;;;;;;;20.85;10.93;;;9.00;99.90;;;;;;5062248;28;20274;-65
2022/04/15 08:42:24;;;;;;;20.60;11.38;;;9.10;99.90;;;;;;5063778;28;20509;-65
2022/04/15 08:44:51;;;;;;;21.35;10.68;;;9.30;99.90;;;;;;5063113;28;20036;-65
2022/04/15 08:47:17;;;;;;;23.45;10.85;;;9.40;99.90;;;;;;5063775;28;20075;-66
2022/04/15 08:49:43;;;;;;;20.63;11.07;;;9.50;99.90;;;;;;5064249;28;20108;-65
2022/04/15 08:52:10;;;;;;;18.70;10.77;;;9.50;99.90;;;;;;5062986;28;20021;-65
2022/04/15 08:54:36;;;;;;;21.05;11.20;;;9.50;99.90;;;;;;5062708;28;20029;-65
2022/04/15 08:57:03;;;;;;;19.33;11.38;;;9.50;99.90;;;;;;5062989;28;20051;-65
2022/04/15 08:59:28;;;;;;;21.27;11.23;;;9.70;99.90;;;;;;5064210;28;20029;-66
2022/04/15 09:01:54;;;;;;;19.98;10.52;;;9.80;99.90;;;;;;5063039;28;20492;-65
2022/04/15 09:04:20;;;;;;;17.02;9.90;;;9.80;99.90;;;;;;5063619;28;20648;-65
2022/04/15 09:06:53;;;;;;;16.27;9.85;;;9.90;99.90;;;;;;5063753;28;20040;-66
2022/04/15 09:09:19;;;;;;;16.23;9.15;;;9.90;99.90;;;;;;5061089;28;20029;-67
2022/04/15 09:11:49;;;;;;;19.27;9.80;;;9.80;99.90;;;;;;5064174;28;20438;-66
2022/04/15 09:14:15;;;;;;;17.25;9.40;;;9.90;99.90;;;;;;5060738;28;20028;-65
2022/04/15 09:16:45;;;;;;;17.98;10.30;;;9.80;99.90;;;;;;5064017;28;20377;-65
2022/04/15 09:19:12;;;;;;;17.33;9.52;;;9.80;99.90;;;;;;5061281;28;20045;-66
2022/04/15 09:21:39;;;;;;;16.23;9.50;;;10.00;99.90;;;;;;5061522;28;20033;-65
2022/04/15 09:24:07;;;;;;;18.85;9.52;;;9.90;99.90;;;;;;5061922;28;20619;-66
2022/04/15 09:26:33;;;;;;;18.48;9.65;;;10.00;99.90;;;;;;5062316;28;20030;-66
2022/04/15 09:28:59;;;;;;;18.08;9.52;;;9.80;99.90;;;;;;5063755;28;20028;-65
2022/04/15 09:31:25;;;;;;;17.75;9.63;;;9.90;99.90;;;;;;5060875;28;20425;-65
2022/04/15 09:33:56;;;;;;;20.00;9.60;;;10.20;99.90;;;;;;5063474;28;20043;-66
2022/04/15 09:36:23;;;;;;;18.70;8.80;;;10.30;99.90;;;;;;5061582;28;20037;-65
2022/04/15 09:38:50;;;;;;;16.95;9.02;;;10.30;99.90;;;;;;5061114;28;20037;-65
2022/04/15 09:41:21;;;;;;;17.08;9.45;;;10.60;99.90;;;;;;5062033;28;20041;-65
2022/04/15 09:43:55;;;;;;;16.15;9.70;;;10.70;99.90;;;;;;5061460;28;20382;-65
2022/04/15 09:46:21;;;;;;;16.83;8.98;;;10.50;99.90;;;;;;5063440;28;20021;-65
2022/04/15 09:49:09;;;;;;;17.67;8.77;;;10.60;99.90;;;;;;5060151;28;20021;-66
2022/04/15 09:51:54;;;;;;;17.33;8.50;;;10.80;99.90;;;;;;5062481;28;20021;-65
2022/04/15 09:54:25;;;;;;;13.77;8.30;;;11.30;99.90;;;;;;5063065;28;20025;-65
2022/04/15 09:56:52;;;;;;;14.32;7.35;;;11.50;99.90;;;;;;5060249;28;20033;-67
2022/04/15 09:59:23;;;;;;;13.68;7.60;;;11.50;99.90;;;;;;5062873;28;20044;-66
2022/04/15 10:02:05;;;;;;;13.05;7.78;;;11.50;99.90;;;;;;5061932;28;20025;-66
2022/04/15 10:04:31;;;;;;;14.02;6.80;;;11.90;99.90;;;;;;5062161;28;20021;-66
2022/04/15 10:07:00;;;;;;;12.95;7.13;;;11.80;99.90;;;;;;5062487;28;20032;-66
2022/04/15 10:09:26;;;;;;;12.68;6.90;;;12.20;99.90;;;;;;5061414;28;20116;-66
2022/04/15 10:11:52;;;;;;;14.10;7.30;;;12.30;99.90;;;;;;5062733;28;20036;-66
2022/04/15 10:14:21;;;;;;;13.40;7.15;;;12.70;99.90;;;;;;5059511;28;20124;-66
2022/04/15 10:16:46;;;;;;;14.73;7.90;;;13.30;99.90;;;;;;5062672;28;20023;-66
2022/04/15 10:19:13;;;;;;;12.75;6.90;;;15.50;99.90;;;;;;5061605;28;20139;-66
2022/04/15 10:21:46;;;;;;;12.43;6.88;;;16.90;99.90;;;;;;5061741;28;20021;-67
2022/04/15 10:24:13;;;;;;;12.07;7.15;;;16.90;99.90;;;;;;5062717;28;20021;-67
2022/04/15 10:26:41;;;;;;;12.48;6.70;;;17.30;99.90;;;;;;5059938;28;20036;-66
2022/04/15 10:29:09;;;;;;;14.38;6.90;;;17.00;99.90;;;;;;5062336;28;20025;-67
2022/04/15 10:31:46;;;;;;;11.40;6.55;;;16.30;99.90;;;;;;5061195;28;20032;-66
2022/04/15 10:34:14;;;;;;;12.63;6.90;;;15.60;99.90;;;;;;5061788;28;20075;-66
2022/04/15 10:36:47;;;;;;;13.35;7.10;;;15.60;99.90;;;;;;5060479;28;20104;-66
2022/04/15 10:39:16;;;;;;;11.57;6.72;;;14.70;99.90;;;;;;5059338;28;20041;-67
2022/04/15 10:41:41;;;;;;;12.52;6.57;;;14.80;99.90;;;;;;5060368;28;20035;-67
2022/04/15 10:44:27;;;;;;;10.43;6.28;;;14.70;99.90;;;;;;5060302;28;20041;-67
2022/04/15 10:46:58;;;;;;;11.85;6.68;;;14.50;99.90;;;;;;5062090;28;20025;-66
2022/04/15 10:49:30;;;;;;;10.83;6.27;;;13.70;99.90;;;;;;5059901;28;20025;-66
2022/04/15 10:52:26;;;;;;;13.77;6.70;;;13.80;99.90;;;;;;5060795;28;20274;-67
2022/04/15 10:54:53;;;;;;;12.43;5.75;;;13.60;99.90;;;;;;5057401;28;20045;-66
2022/04/15 10:57:21;;;;;;;11.75;6.18;;;13.50;99.90;;;;;;5060635;28;20077;-66
2022/04/15 11:02:42;;;;;;;12.07;6.93;;;13.30;99.90;;;;;;5062100;28;20094;-66
2022/04/15 11:05:11;;;;;;;10.85;6.38;;;13.00;99.90;;;;;;5058841;28;20040;-66
2022/04/15 11:07:56;;;;;;;13.88;6.82;;;13.00;99.90;;;;;;5061754;28;20123;-66
2022/04/15 11:10:45;;;;;;;11.77;5.95;;;13.00;99.90;;;;;;5060484;28;20029;-66
2022/04/15 11:13:27;;;;;;;10.93;6.35;;;12.90;99.90;;;;;;5060241;28;20080;-66
2022/04/15 11:15:53;;;;;;;12.23;7.00;;;12.80;99.90;;;;;;5060105;28;20028;-66
2022/04/15 11:18:19;;;;;;;12.63;6.80;;;12.80;99.90;;;;;;5060037;28;20040;-66
2022/04/15 11:20:45;;;;;;;12.63;6.65;;;12.80;99.90;;;;;;5061582;28;20028;-66
2022/04/15 11:23:12;;;;;;;9.13;5.57;;;13.10;99.90;;;;;;5060345;28;20025;-66
2022/04/15 11:25:44;;;;;;;10.02;5.72;;;12.70;99.90;;;;;;5060938;28;20127;-66
2022/04/15 11:28:10;;;;;;;10.93;6.13;;;12.90;99.90;;;;;;5061101;28;20497;-66
2022/04/15 11:30:36;;;;;;;10.93;5.90;;;12.90;99.90;;;;;;5058972;28;20029;-67
2022/04/15 11:33:05;;;;;;;13.43;6.03;;;13.20;99.90;;;;;;5061566;28;20033;-66
2022/04/15 11:35:34;;;;;;;11.05;5.72;;;13.10;99.90;;;;;;5059986;28;20028;-66
2022/04/15 11:38:09;;;;;;;10.20;6.53;;;13.40;99.90;;;;;;5061436;28;20051;-67
2022/04/15 11:40:36;;;;;;;12.90;6.78;;;13.00;99.90;;;;;;5060433;28;20056;-66
2022/04/15 11:43:07;;;;;;;14.20;7.25;;;12.90;99.90;;;;;;5058705;28;20051;-66
2022/04/15 11:45:39;;;;;;;12.30;6.97;;;12.60;99.90;;;;;;5060920;28;20032;-66
2022/04/15 11:48:22;;;;;;;13.70;7.30;;;12.90;99.90;;;;;;5058309;28;20021;-66
2022/04/15 11:50:53;;;;;;;12.90;6.70;;;12.90;99.90;;;;;;5060125;28;20033;-66
2022/04/15 11:53:18;;;;;;;13.43;7.03;;;13.10;99.90;;;;;;5059403;28;20017;-67
2022/04/15 11:55:55;;;;;;;13.20;7.13;;;13.30;99.90;;;;;;5063471;28;20037;-66
2022/04/15 11:58:22;;;;;;;12.00;7.05;;;13.30;99.90;;;;;;5065310;28;20041;-66
2022/04/15 12:00:56;;;;;;;11.77;6.93;;;13.40;99.90;;;;;;5063726;28;20489;-66
2022/04/15 12:03:23;;;;;;;12.75;7.70;;;13.00;99.90;;;;;;5065187;28;20033;-66
2022/04/15 12:05:50;;;;;;;11.35;6.60;;;12.70;99.90;;;;;;5062638;28;20032;-66
2022/04/15 12:08:16;;;;;;;13.98;8.35;;;12.80;99.90;;;;;;5064975;28;20108;-66
2022/04/15 12:10:44;;;;;;;12.05;6.63;;;12.80;99.90;;;;;;5064516;28;20029;-66
2022/04/15 12:13:10;;;;;;;14.13;7.63;;;12.80;99.90;;;;;;5063627;28;20024;-66
2022/04/15 12:15:36;;;;;;;13.32;7.10;;;12.70;99.90;;;;;;5064873;28;20021;-67
2022/04/15 12:18:04;;;;;;;13.48;6.47;;;12.70;99.90;;;;;;5061861;28;20032;-65
2022/04/15 12:20:30;;;;;;;15.02;7.20;;;12.80;99.90;;;;;;5064981;28;20029;-66
2022/04/15 12:23:00;;;;;;;11.82;6.30;;;13.00;99.90;;;;;;5063417;28;20025;-66
2022/04/15 12:25:26;;;;;;;14.48;7.20;;;12.70;99.90;;;;;;5064580;28;20029;-66
2022/04/15 12:27:55;;;;;;;11.50;6.40;;;12.90;99.90;;;;;;5062755;28;20465;-65
2022/04/15 12:30:38;;;;;;;10.98;6.47;;;12.60;99.90;;;;;;5063741;28;20032;-66
2022/04/15 12:33:13;;;;;;;12.68;6.60;;;12.90;99.90;;;;;;5046828;28;20037;-66
2022/04/15 12:36:00;;;;;;;12.23;6.38;;;12.80;99.90;;;;;;5063283;28;20029;-66
2022/04/15 12:38:26;;;;;;;10.60;6.55;;;12.80;99.90;;;;;;5062729;28;20035;-66
2022/04/15 12:40:58;;;;;;;10.43;6.35;;;12.80;99.90;;;;;;5064077;28;20060;-66
2022/04/15 12:43:23;;;;;;;11.60;6.47;;;13.00;99.90;;;;;;5061598;28;20051;-66
2022/04/15 12:45:54;;;;;;;10.07;6.07;;;12.70;99.90;;;;;;5064391;28;20045;-66
2022/04/15 12:48:21;;;;;;;11.07;6.57;;;13.00;99.90;;;;;;5063229;28;20017;-66
2022/04/15 12:50:52;;;;;;;10.45;5.82;;;13.00;99.90;;;;;;5064582;28;20053;-67